createdAt,value
2023-01-13T00:00:12.942Z,3.42
2023-01-13T00:02:39.591Z,3.05
2023-01-13T00:05:07.079Z,3.72
2023-01-13T00:07:33.693Z,3.33
2023-01-13T00:10:00.280Z,2.67
2023-01-13T00:12:26.924Z,3.28
2023-01-13T00:14:53.549Z,3.47
2023-01-13T00:17:20.189Z,3.83
2023-01-13T00:19:46.844Z,3.97
2023-01-13T00:22:13.449Z,4.65
2023-01-13T00:24:40.058Z,4.13
2023-01-13T00:27:06.624Z,5.05
2023-01-13T00:29:33.258Z,4.40
2023-01-13T00:31:59.837Z,6.30
2023-01-13T00:34:26.431Z,4.20
2023-01-13T00:36:53.008Z,6.40
2023-01-13T00:39:19.665Z,5.00
2023-01-13T00:42:04.744Z,4.60
2023-01-13T00:44:31.357Z,5.18
2023-01-13T00:46:57.918Z,4.28
2023-01-13T00:49:24.711Z,5.85
2023-01-13T00:51:51.283Z,5.13
2023-01-13T00:54:18.590Z,4.38
2023-01-13T00:56:45.146Z,3.72
2023-01-13T00:59:13.426Z,5.18
2023-01-13T01:01:41.020Z,4.55
2023-01-13T01:04:07.794Z,5.28
2023-01-13T01:06:34.419Z,5.03
2023-01-13T01:09:01.130Z,4.47
2023-01-13T01:11:30.207Z,3.80
2023-01-13T01:13:57.976Z,3.80
2023-01-13T01:16:26.098Z,3.30
2023-01-13T01:18:53.525Z,3.20
2023-01-13T01:21:21.322Z,4.03
2023-01-13T01:23:47.909Z,4.32
2023-01-13T01:26:19.804Z,4.53
2023-01-13T01:28:46.621Z,3.50
2023-01-13T01:31:16.245Z,4.30
2023-01-13T01:33:43.053Z,4.22
2023-01-13T01:36:11.527Z,4.78
2023-01-13T01:38:38.390Z,5.03
2023-01-13T01:41:05.100Z,3.92
2023-01-13T01:44:04.424Z,4.78
2023-01-13T01:46:39.555Z,4.53
2023-01-13T01:49:12.661Z,5.72
2023-01-13T01:51:45.858Z,4.88
2023-01-13T01:54:19.827Z,4.82
2023-01-13T01:56:47.271Z,5.47
2023-01-13T01:59:14.423Z,4.97
2023-01-13T02:01:42.059Z,5.53
2023-01-13T02:04:15.601Z,6.97
2023-01-13T02:06:44.034Z,6.32
2023-01-13T02:09:11.257Z,5.22
2023-01-13T02:11:56.542Z,3.83
2023-01-13T02:14:25.677Z,5.20
2023-01-13T02:17:11.068Z,5.05
2023-01-13T02:20:01.897Z,5.15
2023-01-13T02:22:36.023Z,4.70
2023-01-13T02:25:13.323Z,5.05
2023-01-13T02:27:56.178Z,5.43
2023-01-13T02:31:06.850Z,4.88
2023-01-13T02:34:01.060Z,4.80
2023-01-13T02:36:52.322Z,4.85
2023-01-13T02:39:29.984Z,5.55
2023-01-13T02:42:19.680Z,4.85
2023-01-13T02:44:50.891Z,4.72
2023-01-13T02:47:27.904Z,6.93
2023-01-13T02:50:04.370Z,4.60
2023-01-13T02:52:40.140Z,4.10
2023-01-13T02:55:29.479Z,4.47
2023-01-13T02:57:58.783Z,6.05
2023-01-13T03:00:26.517Z,5.65
2023-01-13T03:02:53.230Z,3.90
2023-01-13T03:05:19.866Z,5.75
2023-01-13T03:08:11.190Z,5.05
2023-01-13T03:10:58.807Z,4.70
2023-01-13T03:13:37.661Z,5.45
2023-01-13T03:16:24.041Z,5.60
2023-01-13T03:19:28.379Z,6.45
2023-01-13T03:21:57.764Z,5.00
2023-01-13T03:24:37.165Z,6.70
2023-01-13T03:27:12.583Z,4.63
2023-01-13T03:29:48.448Z,4.75
2023-01-13T03:32:23.383Z,5.90
2023-01-13T03:35:08.296Z,4.72
2023-01-13T03:37:38.714Z,5.30
2023-01-13T03:40:15.826Z,5.28
2023-01-13T03:43:04.987Z,4.80
2023-01-13T03:45:33.230Z,5.60
2023-01-13T03:48:00.244Z,5.30
2023-01-13T03:50:30.323Z,6.30
2023-01-13T03:53:00.829Z,4.97
2023-01-13T03:55:35.982Z,4.72
2023-01-13T03:58:15.020Z,5.70
2023-01-13T04:00:49.939Z,4.97
2023-01-13T04:03:37.857Z,5.38
2023-01-13T04:06:28.444Z,4.80
2023-01-13T04:09:03.532Z,4.88
2023-01-13T04:11:38.022Z,4.32
2023-01-13T04:14:06.192Z,4.88
2023-01-13T04:16:32.985Z,5.72
2023-01-13T04:18:59.535Z,6.15
2023-01-13T04:21:26.295Z,4.35
2023-01-13T04:23:53.934Z,5.30
2023-01-13T04:26:20.571Z,5.20
2023-01-13T04:28:47.180Z,5.53
2023-01-13T04:31:13.871Z,5.93
2023-01-13T04:33:40.447Z,5.60
2023-01-13T04:36:07.379Z,5.85
2023-01-13T04:38:33.963Z,6.00
2023-01-13T04:41:00.680Z,4.50
2023-01-13T04:43:27.359Z,5.53
2023-01-13T04:45:54.011Z,4.82
2023-01-13T04:48:20.563Z,4.90
2023-01-13T04:50:47.138Z,4.70
2023-01-13T04:53:13.738Z,6.40
2023-01-13T04:55:40.316Z,4.80
2023-01-13T04:58:09.197Z,5.47
2023-01-13T05:00:35.878Z,5.07
2023-01-13T05:03:02.764Z,5.38
2023-01-13T05:05:30.031Z,5.75
2023-01-13T05:07:57.171Z,4.70
2023-01-13T05:10:24.185Z,4.28
2023-01-13T05:13:10.165Z,4.50
2023-01-13T05:15:55.390Z,6.03
2023-01-13T05:18:22.116Z,6.30
2023-01-13T05:20:49.620Z,4.55
2023-01-13T05:23:34.705Z,6.75
2023-01-13T05:26:01.479Z,4.63
2023-01-13T05:28:32.177Z,4.72
2023-01-13T05:30:59.037Z,3.95
2023-01-13T05:33:25.817Z,4.53
2023-01-13T05:35:52.467Z,4.75
2023-01-13T05:38:19.073Z,4.65
2023-01-13T05:41:04.470Z,4.07
2023-01-13T05:43:32.915Z,4.88
2023-01-13T05:46:09.844Z,4.35
2023-01-13T05:48:41.707Z,3.90
2023-01-13T05:51:10.854Z,3.90
2023-01-13T05:53:37.504Z,3.65
2023-01-13T05:56:05.232Z,4.25
2023-01-13T05:58:31.895Z,3.22
2023-01-13T06:01:07.166Z,3.40
2023-01-13T06:03:34.139Z,3.70
2023-01-13T06:06:02.158Z,4.22
2023-01-13T06:08:29.024Z,4.43
2023-01-13T06:10:55.638Z,3.95
2023-01-13T06:13:22.918Z,4.05
2023-01-13T06:15:49.450Z,4.28
2023-01-13T06:18:16.077Z,3.15
2023-01-13T06:20:42.947Z,6.38
2023-01-13T06:23:10.861Z,3.50
2023-01-13T06:25:47.067Z,3.63
2023-01-13T06:28:13.627Z,3.95
2023-01-13T06:30:43.891Z,4.68
2023-01-13T06:33:14.238Z,3.78
2023-01-13T06:35:44.613Z,3.35
2023-01-13T06:38:13.400Z,3.83
2023-01-13T06:40:42.077Z,2.67
2023-01-13T06:43:17.726Z,4.15
2023-01-13T06:45:53.116Z,3.20
2023-01-13T06:48:25.518Z,3.35
2023-01-13T06:50:52.231Z,2.53
2023-01-13T06:53:19.756Z,3.30
2023-01-13T06:55:46.697Z,3.33
2023-01-13T06:58:13.418Z,3.30
2023-01-13T07:00:40.128Z,2.75
2023-01-13T07:03:14.634Z,2.70
2023-01-13T07:05:43.257Z,4.78
2023-01-13T07:08:10.445Z,3.83
2023-01-13T07:10:37.331Z,2.78
2023-01-13T07:13:24.079Z,2.90
2023-01-13T07:15:55.787Z,3.10
2023-01-13T07:18:22.414Z,2.40
2023-01-13T07:20:56.745Z,1.73
2023-01-13T07:23:23.537Z,1.70
2023-01-13T07:25:50.432Z,1.70
2023-01-13T07:28:17.513Z,1.02
2023-01-13T07:30:44.154Z,1.65
2023-01-13T07:33:10.735Z,1.60
2023-01-13T07:35:37.317Z,1.77
2023-01-13T07:38:03.985Z,1.92
2023-01-13T07:40:30.561Z,1.38
2023-01-13T07:43:15.843Z,1.10
2023-01-13T07:45:42.596Z,1.70
2023-01-13T07:48:09.142Z,1.27
2023-01-13T07:50:35.758Z,2.45
2023-01-13T07:53:02.384Z,1.73
2023-01-13T07:55:29.059Z,2.42
2023-01-13T07:57:55.799Z,1.77
2023-01-13T08:00:22.946Z,1.70
2023-01-13T08:02:49.507Z,1.50
2023-01-13T08:05:16.545Z,0.90
2023-01-13T08:07:43.155Z,1.70
2023-01-13T08:10:10.165Z,2.08
2023-01-13T08:12:57.063Z,1.52
2023-01-13T08:15:23.999Z,1.10
2023-01-13T08:17:50.697Z,1.45
2023-01-13T08:20:17.390Z,1.60
2023-01-13T08:22:44.389Z,2.35
2023-01-13T08:25:11.049Z,1.75
2023-01-13T08:27:37.757Z,1.80
2023-01-13T08:30:05.875Z,2.22
2023-01-13T08:32:32.643Z,1.98
2023-01-13T08:34:59.202Z,2.10
2023-01-13T08:37:25.717Z,1.98
2023-01-13T08:39:52.364Z,2.08
2023-01-13T08:42:18.905Z,1.85
2023-01-13T08:44:45.498Z,1.58
2023-01-13T08:47:12.082Z,1.50
2023-01-13T08:49:38.693Z,1.50
2023-01-13T08:52:05.636Z,1.58
2023-01-13T08:54:32.282Z,1.63
2023-01-13T08:56:58.949Z,1.23
2023-01-13T08:59:25.621Z,1.88
2023-01-13T09:01:52.482Z,1.33
2023-01-13T09:04:24.074Z,1.48
2023-01-13T09:06:51.281Z,1.95
2023-01-13T09:09:18.192Z,1.83
2023-01-13T09:12:05.947Z,2.10
2023-01-13T09:14:34.231Z,2.05
2023-01-13T09:17:00.973Z,1.52
2023-01-13T09:19:28.409Z,2.17
2023-01-13T09:21:57.082Z,2.05
2023-01-13T09:24:24.154Z,2.35
2023-01-13T09:26:50.717Z,1.77
2023-01-13T09:29:17.625Z,1.90
2023-01-13T09:31:44.545Z,2.17
2023-01-13T09:34:39.594Z,1.67
2023-01-13T09:37:06.991Z,2.65
2023-01-13T09:39:34.498Z,1.70
2023-01-13T09:42:48.350Z,2.03
2023-01-13T09:45:24.014Z,1.60
2023-01-13T09:48:19.372Z,1.80
2023-01-13T09:50:50.829Z,1.85
2023-01-13T09:53:23.167Z,1.35
2023-01-13T09:55:49.875Z,1.50
2023-01-13T09:58:18.089Z,2.15
2023-01-13T10:01:00.211Z,1.90
2023-01-13T10:03:29.628Z,2.42
2023-01-13T10:06:02.269Z,1.95
2023-01-13T10:08:33.285Z,2.17
2023-01-13T10:11:43.823Z,2.78
2023-01-13T10:14:24.063Z,1.67
2023-01-13T10:17:00.442Z,1.95
2023-01-13T10:19:34.728Z,2.60
2023-01-13T10:22:42.778Z,1.90
2023-01-13T10:25:21.636Z,2.40
2023-01-13T10:27:50.380Z,3.13
2023-01-13T10:30:31.502Z,3.13
2023-01-13T10:33:09.346Z,1.90
2023-01-13T10:35:53.517Z,2.15
2023-01-13T10:38:26.047Z,2.63
2023-01-13T10:40:56.164Z,3.05
2023-01-13T10:43:23.116Z,2.25
2023-01-13T10:45:58.657Z,1.67
2023-01-13T10:48:39.798Z,2.55
2023-01-13T10:51:29.058Z,3.38
2023-01-13T10:54:12.661Z,1.73
2023-01-13T10:56:44.712Z,1.58
2023-01-13T10:59:22.305Z,2.20
2023-01-13T11:01:59.632Z,2.20
2023-01-13T11:04:34.459Z,2.75
2023-01-13T11:07:02.366Z,2.80
2023-01-13T11:09:30.381Z,2.40
2023-01-13T11:11:57.747Z,2.47
2023-01-13T11:14:40.073Z,2.67
2023-01-13T11:17:19.852Z,2.40
2023-01-13T11:20:00.506Z,1.83
2023-01-13T11:22:32.264Z,2.47
2023-01-13T11:25:04.671Z,2.25
2023-01-13T11:27:41.029Z,2.25
2023-01-13T11:30:13.767Z,2.30
2023-01-13T11:33:15.885Z,2.35
2023-01-13T11:35:51.605Z,3.72
2023-01-13T11:38:48.035Z,3.05
2023-01-13T11:41:23.481Z,1.85
2023-01-13T11:44:08.183Z,1.70
2023-01-13T11:46:34.929Z,1.40
2023-01-13T11:49:02.003Z,2.13
2023-01-13T11:51:40.681Z,1.42
2023-01-13T11:54:35.699Z,1.77
2023-01-13T11:57:08.069Z,2.15
2023-01-13T11:59:59.276Z,2.13
2023-01-13T12:02:59.769Z,2.60
2023-01-13T12:05:44.870Z,1.88
2023-01-13T12:08:22.804Z,1.60
2023-01-13T12:11:16.515Z,2.45
2023-01-13T12:14:01.843Z,2.00
2023-01-13T12:16:32.002Z,2.40
2023-01-13T12:19:13.843Z,2.30
2023-01-13T12:21:48.903Z,1.70
2023-01-13T12:24:24.819Z,2.35
2023-01-13T12:27:01.623Z,1.20
2023-01-13T12:29:33.840Z,1.85
2023-01-13T12:32:02.955Z,2.05
2023-01-13T12:34:47.694Z,1.33
2023-01-13T12:37:17.681Z,2.58
2023-01-13T12:40:01.284Z,1.45
2023-01-13T12:43:11.150Z,1.10
2023-01-13T12:45:37.728Z,1.33
2023-01-13T12:48:05.151Z,1.70
2023-01-13T12:50:31.607Z,1.55
2023-01-13T12:53:31.922Z,1.30
2023-01-13T12:56:40.768Z,1.17
2023-01-13T12:59:19.433Z,1.33
2023-01-13T13:01:49.572Z,1.35
2023-01-13T13:04:43.283Z,1.17
2023-01-13T13:07:13.223Z,1.23
2023-01-13T13:10:04.980Z,1.52
2023-01-13T13:12:50.010Z,1.30
2023-01-13T13:15:20.593Z,1.98
2023-01-13T13:18:02.571Z,1.33
2023-01-13T13:21:06.951Z,0.93
2023-01-13T13:23:33.483Z,1.50
2023-01-13T13:26:12.141Z,0.98
2023-01-13T13:28:44.821Z,1.00
2023-01-13T13:31:21.085Z,1.20
2023-01-13T13:33:54.239Z,0.95
2023-01-13T13:36:48.551Z,1.13
2023-01-13T13:42:46.766Z,1.83
2023-01-13T13:45:40.637Z,0.98
2023-01-13T13:48:27.389Z,1.40
2023-01-13T13:50:59.183Z,1.70
2023-01-13T13:53:28.669Z,0.57
2023-01-13T13:55:57.488Z,1.02
2023-01-13T13:58:26.322Z,0.95
2023-01-13T14:00:54.264Z,1.33
2023-01-13T14:03:35.920Z,1.77
2023-01-13T14:06:05.901Z,1.40
2023-01-13T14:08:46.099Z,1.10
2023-01-13T14:11:26.427Z,1.98
2023-01-13T14:14:11.862Z,1.10
2023-01-13T14:16:40.109Z,1.08
2023-01-13T14:19:07.269Z,1.08
2023-01-13T14:21:33.869Z,1.60
2023-01-13T14:24:05.532Z,1.55
2023-01-13T14:26:32.440Z,1.60
2023-01-13T14:29:01.058Z,1.88
2023-01-13T14:31:28.029Z,1.58
2023-01-13T14:33:59.501Z,2.00
2023-01-13T14:36:32.223Z,1.70
2023-01-13T14:39:05.171Z,1.70
2023-01-13T14:41:45.391Z,1.50
2023-01-13T14:44:27.075Z,2.70
2023-01-13T14:46:56.464Z,1.65
2023-01-13T14:49:36.345Z,1.70
2023-01-13T14:52:24.028Z,1.33
2023-01-13T14:54:52.617Z,1.40
2023-01-13T14:57:39.654Z,2.28
2023-01-13T15:00:20.711Z,1.48
2023-01-13T15:02:50.059Z,1.60
2023-01-13T15:05:19.413Z,1.30
2023-01-13T15:07:54.307Z,1.75
2023-01-13T15:10:24.018Z,1.30
2023-01-13T15:12:52.436Z,1.23
2023-01-13T15:15:39.072Z,1.48
2023-01-13T15:18:12.603Z,2.25
2023-01-13T15:20:40.433Z,1.52
2023-01-13T15:23:07.035Z,1.73
2023-01-13T15:25:40.774Z,1.42
2023-01-13T15:30:34.133Z,1.42
2023-01-13T15:33:00.694Z,1.70
2023-01-13T15:35:28.506Z,1.27
2023-01-13T15:37:56.571Z,1.50
2023-01-13T15:40:31.359Z,1.95
2023-01-13T15:43:16.969Z,2.55
2023-01-13T15:46:02.632Z,1.85
2023-01-13T15:48:31.997Z,1.17
2023-01-13T15:50:59.633Z,1.65
2023-01-13T15:53:27.627Z,1.50
2023-01-13T15:55:56.899Z,2.10
2023-01-13T15:58:28.153Z,1.35
2023-01-13T16:00:55.123Z,1.58
2023-01-13T16:03:21.881Z,1.88
2023-01-13T16:05:48.828Z,1.90
2023-01-13T16:08:20.193Z,1.00
2023-01-13T16:10:47.153Z,1.63
2023-01-13T16:13:14.715Z,1.63
2023-01-13T16:15:43.801Z,1.50
2023-01-13T16:18:19.648Z,1.20
2023-01-13T16:20:46.972Z,1.85
2023-01-13T16:23:13.951Z,1.90
2023-01-13T16:25:43.646Z,2.42
2023-01-13T16:28:19.865Z,1.48
2023-01-13T16:30:46.495Z,1.92
2023-01-13T16:33:13.058Z,1.50
2023-01-13T16:36:08.962Z,2.45
2023-01-13T16:38:26.248Z,2.10
2023-01-13T16:40:52.778Z,1.83
2023-01-13T16:43:19.420Z,2.13
2023-01-13T16:45:45.997Z,2.17
2023-01-13T16:48:19.445Z,2.58
2023-01-13T16:50:46.294Z,12.13
2023-01-13T16:53:12.928Z,3.28
2023-01-13T16:55:40.886Z,2.25
2023-01-13T16:58:15.674Z,1.98
2023-01-13T17:00:42.310Z,3.47
2023-01-13T17:03:08.940Z,2.78
2023-01-13T17:05:39.392Z,2.92
2023-01-13T17:08:06.069Z,3.47
2023-01-13T17:10:32.574Z,1.95
2023-01-13T17:13:04.572Z,2.88
2023-01-13T17:15:40.183Z,1.95
2023-01-13T17:18:06.727Z,2.22
2023-01-13T17:20:33.305Z,2.30
2023-01-13T17:22:59.854Z,1.92
2023-01-13T17:25:26.440Z,1.67
2023-01-13T17:27:53.001Z,2.63
2023-01-13T17:30:20.794Z,4.10
2023-01-13T17:32:47.381Z,2.00
2023-01-13T17:35:18.781Z,1.95
2023-01-13T17:37:45.629Z,2.22
2023-01-13T17:40:12.611Z,1.60
2023-01-13T17:42:39.156Z,1.85
2023-01-13T17:45:06.947Z,1.58
2023-01-13T17:47:33.553Z,2.28
2023-01-13T17:50:00.107Z,1.48
2023-01-13T17:52:26.648Z,2.08
2023-01-13T17:54:53.159Z,2.13
2023-01-13T17:57:19.725Z,2.47
2023-01-13T17:59:47.918Z,1.85
2023-01-13T18:02:14.929Z,2.55
2023-01-13T18:04:42.251Z,2.15
2023-01-13T18:07:08.854Z,1.70
2023-01-13T18:09:35.384Z,2.35
2023-01-13T18:12:02.157Z,2.00
2023-01-13T18:14:28.721Z,1.98
2023-01-13T18:16:55.424Z,1.90
2023-01-13T18:19:40.613Z,3.05
2023-01-13T18:22:25.739Z,2.17
2023-01-13T18:25:10.997Z,2.03
2023-01-13T18:27:39.919Z,1.92
2023-01-13T18:30:07.051Z,2.00
2023-01-13T18:32:33.949Z,2.53
2023-01-13T18:35:06.519Z,2.30
2023-01-13T18:37:35.986Z,3.15
2023-01-13T18:40:03.602Z,2.20
2023-01-13T18:42:48.861Z,2.83
2023-01-13T18:45:15.520Z,3.22
2023-01-13T18:47:42.336Z,3.03
2023-01-13T18:50:10.665Z,2.75
2023-01-13T18:52:37.238Z,2.35
2023-01-13T18:55:03.937Z,3.40
2023-01-13T18:57:30.517Z,2.72
2023-01-13T18:59:57.640Z,3.03
2023-01-13T19:02:26.547Z,1.17
2023-01-13T19:04:57.169Z,1.23
2023-01-13T19:07:28.244Z,1.45
2023-01-13T19:09:56.011Z,1.98
2023-01-13T19:12:30.899Z,2.35
2023-01-13T19:14:58.371Z,2.15
2023-01-13T19:17:26.911Z,2.55
2023-01-13T19:19:55.082Z,1.60
2023-01-13T19:22:30.791Z,2.10
2023-01-13T19:24:57.850Z,1.92
2023-01-13T19:27:25.134Z,2.00
2023-01-13T19:29:53.655Z,1.50
2023-01-13T19:32:21.976Z,2.63
2023-01-13T19:34:51.680Z,2.13
2023-01-13T19:37:19.001Z,2.22
2023-01-13T19:39:45.670Z,2.55
2023-01-13T19:42:31.446Z,2.55
2023-01-13T19:45:16.957Z,2.53
2023-01-13T19:47:45.465Z,1.98
2023-01-13T19:50:13.486Z,2.50
2023-01-13T19:52:41.418Z,1.67
2023-01-13T19:55:08.172Z,2.13
2023-01-13T19:57:34.728Z,1.95
2023-01-13T20:00:01.287Z,2.15
2023-01-13T20:02:28.172Z,1.50
2023-01-13T20:04:56.167Z,1.58
2023-01-13T20:07:24.632Z,2.42
2023-01-13T20:09:56.344Z,2.92
2023-01-13T20:12:24.177Z,1.98
2023-01-13T20:14:50.732Z,2.13
2023-01-13T20:17:19.372Z,2.03
2023-01-13T20:19:47.782Z,2.13
2023-01-13T20:22:14.424Z,21.23
2023-01-13T20:24:42.138Z,5.15
2023-01-13T20:27:09.217Z,2.70
2023-01-13T20:29:35.805Z,2.38
2023-01-13T20:32:02.924Z,2.80
2023-01-13T20:34:29.803Z,2.53
2023-01-13T20:36:58.415Z,2.10
2023-01-13T20:39:29.047Z,2.55
2023-01-13T20:42:14.193Z,2.22
2023-01-13T20:44:41.117Z,2.20
2023-01-13T20:47:08.017Z,2.63
2023-01-13T20:49:38.823Z,1.80
2023-01-13T20:52:09.466Z,3.10
2023-01-13T20:54:37.272Z,2.15
2023-01-13T20:57:07.796Z,1.95
2023-01-13T20:59:34.337Z,2.25
2023-01-13T21:02:01.138Z,2.10
2023-01-13T21:04:27.784Z,3.08
2023-01-13T21:06:56.029Z,2.90
2023-01-13T21:09:23.677Z,2.00
2023-01-13T21:12:09.305Z,2.22
2023-01-13T21:14:54.281Z,2.20
2023-01-13T21:17:39.388Z,2.30
2023-01-13T21:20:08.361Z,2.60
2023-01-13T21:22:35.793Z,2.28
2023-01-13T21:25:03.686Z,2.28
2023-01-13T21:27:30.742Z,3.33
2023-01-13T21:29:57.423Z,2.67
2023-01-13T21:32:24.270Z,2.28
2023-01-13T21:34:50.976Z,1.70
2023-01-13T21:37:18.527Z,1.80
2023-01-13T21:39:45.059Z,2.38
2023-01-13T21:42:34.335Z,3.60
2023-01-13T21:45:19.565Z,2.58
2023-01-13T21:47:48.958Z,2.00
2023-01-13T21:50:26.927Z,2.70
2023-01-13T21:52:54.437Z,2.00
2023-01-13T21:55:26.908Z,1.80
2023-01-13T21:58:14.233Z,2.70
2023-01-13T22:00:44.579Z,2.47
2023-01-13T22:03:12.474Z,2.40
2023-01-13T22:05:39.318Z,2.15
2023-01-13T22:08:06.391Z,2.20
2023-01-13T22:10:34.173Z,3.33
2023-01-13T22:13:22.069Z,2.22
2023-01-13T22:15:48.745Z,3.45
2023-01-13T22:18:15.314Z,2.13
2023-01-13T22:20:42.096Z,2.40
2023-01-13T22:23:08.758Z,2.42
2023-01-13T22:25:35.290Z,2.38
2023-01-13T22:28:05.919Z,2.10
2023-01-13T22:30:33.141Z,2.38
2023-01-13T22:33:00.126Z,2.35
2023-01-13T22:35:26.927Z,2.80
2023-01-13T22:37:53.518Z,2.40
2023-01-13T22:40:20.153Z,3.63
2023-01-13T22:42:46.732Z,2.28
2023-01-13T22:45:13.906Z,2.20
2023-01-13T22:47:40.652Z,2.40
2023-01-13T22:50:08.150Z,3.35
2023-01-13T22:52:35.265Z,2.55
2023-01-13T22:55:01.901Z,3.03
2023-01-13T22:57:46.771Z,2.65
2023-01-13T23:00:14.827Z,2.65
2023-01-13T23:02:41.460Z,2.88
2023-01-13T23:05:08.430Z,2.90
2023-01-13T23:07:35.616Z,4.22
2023-01-13T23:10:02.689Z,5.00
2023-01-13T23:12:29.291Z,2.95
2023-01-13T23:14:55.847Z,2.95
2023-01-13T23:17:22.390Z,2.70
2023-01-13T23:19:48.923Z,2.97
2023-01-13T23:22:15.555Z,2.88
2023-01-13T23:24:42.097Z,2.92
2023-01-13T23:27:08.668Z,2.35
2023-01-13T23:29:35.189Z,3.00
2023-01-13T23:32:01.741Z,3.30
2023-01-13T23:34:28.270Z,3.50
2023-01-13T23:36:54.866Z,2.65
2023-01-13T23:39:21.396Z,2.70
2023-01-13T23:41:47.923Z,2.70
2023-01-13T23:44:14.472Z,2.70
2023-01-13T23:46:41.074Z,3.08
2023-01-13T23:49:07.797Z,4.55
2023-01-13T23:51:34.403Z,2.45
2023-01-13T23:54:01.289Z,2.42
2023-01-13T23:56:30.061Z,2.55
2023-01-13T23:58:57.092Z,2.67
